Time;durP1;ratioP1;P1;durP2;ratioP2;P2;SDS_P1;SDS_P2;PMS_P1;PMS_P2;Temp;Humidity;BMP_temperature;BMP_pressure;BME280_temperature;BME280_humidity;BME280_pressure;Samples;Min_cycle;Max_cycle;Signal;HPM_P1;HPM_P2
2022/04/08 00:10:34;;;;;;;2.27;1.57;;;6.70;99.90;;;;;;6164434;23;20138;-87
2022/04/08 00:30:35;;;;;;;1.67;1.57;;;6.80;99.90;;;;;;5698514;22;15253517;-87
2022/04/08 00:36:21;;;;;;;4.97;2.40;;;6.70;1.00;;;;;;6312450;22;20140;-90
2022/04/08 00:39:02;;;;;;;4.37;2.23;;;6.70;1.00;;;;;;6310803;22;20175;-91
2022/04/08 01:13:11;;;;;;;4.93;2.80;;;6.50;99.90;;;;;;6207255;23;20168;-89
2022/04/08 01:15:53;;;;;;;4.87;2.80;;;6.50;99.90;;;;;;6279425;22;20223;-89
2022/04/08 01:18:50;;;;;;;4.40;2.90;;;6.50;99.90;;;;;;6310961;22;20234;-91
2022/04/08 01:24:31;;;;;;;5.80;2.67;;;6.60;99.90;;;;;;6307821;22;20175;-89
2022/04/08 01:30:55;;;;;;;5.83;2.10;;;6.70;99.90;;;;;;6307317;22;20169;-90
2022/04/08 01:33:22;;;;;;;6.60;2.43;;;6.70;45.90;;;;;;6289340;22;20193;-86
2022/04/08 01:35:49;;;;;;;4.70;2.30;;;6.60;1.00;;;;;;6276914;22;20626;-85
2022/04/08 01:41:54;;;;;;;3.10;1.97;;;6.60;81.10;;;;;;6301685;22;20158;-90
2022/04/08 01:44:24;;;;;;;4.83;2.27;;;6.50;99.90;;;;;;6296853;22;20157;-88
2022/04/08 01:47:14;;;;;;;4.10;2.20;;;6.40;99.90;;;;;;6303496;22;20171;-90
2022/04/08 01:53:13;;;;;;;6.87;2.80;;;6.30;99.90;;;;;;6304757;22;20236;-90
2022/04/08 01:56:03;;;;;;;6.90;2.70;;;6.30;1.00;;;;;;6303162;22;20173;-87
2022/04/08 01:58:49;;;;;;;6.67;3.83;;;6.20;1.00;;;;;;6304596;22;20176;-88
2022/04/08 02:04:40;;;;;;;5.33;3.17;;;6.10;1.00;;;;;;6304469;22;20174;-87
2022/04/08 02:10:30;;;;;;;5.50;3.43;;;6.10;99.90;;;;;;6299777;22;20222;-87
2022/04/08 02:13:14;;;;;;;8.53;3.27;;;6.10;99.90;;;;;;6303200;22;20158;-89
2022/04/08 02:16:09;;;;;;;3.93;2.50;;;6.00;99.90;;;;;;6304594;22;20152;-88
2022/04/08 02:18:49;;;;;;;3.33;2.17;;;6.00;99.90;;;;;;6304157;22;20167;-89
2022/04/08 02:21:48;;;;;;;4.20;2.70;;;6.00;1.00;;;;;;6301410;22;20178;-89
2022/04/08 02:24:26;;;;;;;3.73;2.33;;;6.00;1.00;;;;;;6303217;22;20166;-88
2022/04/08 02:27:06;;;;;;;4.87;2.50;;;6.00;1.00;;;;;;6303354;22;20275;-90
2022/04/08 02:29:43;;;;;;;5.80;2.60;;;5.90;1.00;;;;;;6279424;22;20155;-89
2022/04/08 02:32:28;;;;;;;5.17;2.83;;;6.00;1.00;;;;;;6303370;22;20178;-89
2022/04/08 02:35:19;;;;;;;4.90;2.60;;;5.90;1.00;;;;;;6272823;22;20174;-89
2022/04/08 02:41:10;;;;;;;3.57;1.93;;;6.00;1.00;;;;;;6298195;22;20171;-89
2022/04/08 02:44:06;;;;;;;3.50;3.20;;;6.00;76.50;;;;;;6303929;22;20215;-88
2022/04/08 02:46:56;;;;;;;4.93;2.17;;;6.00;99.90;;;;;;6256183;22;20168;-89
2022/04/08 02:52:44;;;;;;;;;;;6.00;99.90;;;;;;6211257;23;19928;-89
2022/04/08 02:55:25;;;;;;;;;;;6.00;41.40;;;;;;6272777;22;19924;-88
2022/04/08 02:57:56;;;;;;;;;;;6.00;1.00;;;;;;6277324;22;20327;-88
2022/04/08 03:06:33;;;;;;;;;;;6.00;1.00;;;;;;6298105;22;19932;-88
2022/04/08 03:09:21;;;;;;;;;;;6.00;1.00;;;;;;6304382;22;19941;-89
2022/04/08 03:14:39;;;;;;;;;;;5.90;1.00;;;;;;6300648;22;19921;-89
2022/04/08 03:17:22;;;;;;;;;;;5.90;1.00;;;;;;6302305;22;19950;-91
2022/04/08 03:20:04;;;;;;;;;;;5.90;1.00;;;;;;6303232;22;19958;-89
2022/04/08 03:36:15;;;;;;;;;;;5.90;99.90;;;;;;5659608;22;12648582;-87
2022/04/08 03:39:00;;;;;;;;;;;5.70;99.90;;;;;;6187489;23;19973;-88
2022/04/08 03:44:41;;;;;;;;;;;5.70;99.90;;;;;;6190627;23;19968;-91
2022/04/08 03:47:11;;;;;;;;;;;5.70;1.00;;;;;;6189073;23;19946;-88
2022/04/08 03:50:00;;;;;;;;;;;5.70;1.00;;;;;;6190561;23;19957;-90
2022/04/08 03:52:44;;;;;;;;;;;5.70;1.00;;;;;;6189644;23;19949;-89
2022/04/08 03:55:16;;;;;;;;;;;5.70;1.00;;;;;;6190543;23;19942;-87
2022/04/08 03:57:48;;;;;;;;;;;5.70;1.00;;;;;;6189709;23;19961;-91
2022/04/08 04:03:01;;;;;;;;;;;5.80;1.00;;;;;;6186459;23;19950;-88
2022/04/08 04:05:28;;;;;;;;;;;5.80;1.00;;;;;;6186997;23;19950;-85
2022/04/08 04:10:50;;;;;;;;;;;5.80;1.00;;;;;;6170275;23;19987;-85
2022/04/08 04:16:25;;;;;;;;;;;5.90;1.00;;;;;;6189090;23;20411;-88
2022/04/08 04:18:52;;;;;;;;;;;5.90;1.00;;;;;;6178477;23;19951;-87
2022/04/08 04:21:53;;;;;;;;;;;5.90;1.00;;;;;;6189327;23;19935;-88
2022/04/08 04:24:44;;;;;;;;;;;5.90;1.00;;;;;;6191266;23;20002;-87
2022/04/08 04:27:12;;;;;;;;;;;5.90;1.00;;;;;;6189496;23;19950;-86
2022/04/08 04:30:01;;;;;;;;;;;5.90;99.90;;;;;;6185390;23;19986;-87
2022/04/08 04:32:28;;;;;;;;;;;5.90;99.90;;;;;;6172494;23;20017;-83
2022/04/08 04:34:54;;;;;;;;;;;5.90;99.90;;;;;;6172923;23;19967;-83
2022/04/08 04:37:28;;;;;;;;;;;5.90;99.90;;;;;;6163829;23;19952;-84
2022/04/08 04:39:56;;;;;;;;;;;5.90;99.90;;;;;;6160932;23;19957;-86
2022/04/08 04:42:22;;;;;;;;;;;5.90;99.90;;;;;;6158093;23;19966;-87
2022/04/08 04:44:49;;;;;;;;;;;6.00;99.90;;;;;;6170056;23;19972;-87
2022/04/08 04:47:20;;;;;;;;;;;5.90;99.90;;;;;;6160136;23;19985;-90
2022/04/08 04:49:47;;;;;;;;;;;6.00;51.80;;;;;;6168625;23;19943;-86
2022/04/08 04:52:16;;;;;;;;;;;6.10;99.90;;;;;;6165794;23;19941;-86
2022/04/08 04:54:43;;;;;;;;;;;6.10;1.00;;;;;;6161606;23;19957;-85
2022/04/08 04:57:11;;;;;;;;;;;6.20;1.00;;;;;;6168856;23;20390;-89
2022/04/08 04:59:38;;;;;;;;;;;6.20;1.00;;;;;;6160065;23;19933;-81
2022/04/08 05:02:05;;;;;;;;;;;6.20;1.00;;;;;;6168464;23;19951;-86
2022/04/08 05:04:32;;;;;;;;;;;6.30;1.00;;;;;;6158021;23;19966;-84
2022/04/08 05:06:58;;;;;;;;;;;6.30;1.00;;;;;;6163661;23;19956;-87
2022/04/08 05:09:35;;;;;;;;;;;6.30;1.00;;;;;;6162917;23;19963;-87
2022/04/08 05:12:11;;;;;;;;;;;6.40;99.90;;;;;;6167687;23;19943;-90
2022/04/08 05:14:44;;;;;;;;;;;6.40;99.90;;;;;;6168296;23;19966;-85
2022/04/08 05:17:10;;;;;;;;;;;6.40;1.00;;;;;;6166942;23;19944;-88
2022/04/08 05:19:43;;;;;;;;;;;6.40;1.00;;;;;;6168675;23;20328;-89
2022/04/08 05:22:12;;;;;;;;;;;6.40;1.00;;;;;;6171869;23;19978;-89
2022/04/08 05:24:39;;;;;;;;;;;6.40;1.00;;;;;;6167191;23;20426;-87
2022/04/08 05:27:23;;;;;;;;;;;6.40;1.00;;;;;;6162311;23;20335;-88
2022/04/08 05:29:56;;;;;;;;;;;6.40;1.00;;;;;;6170087;23;19944;-93
2022/04/08 05:32:23;;;;;;;;;;;6.50;1.00;;;;;;6174790;23;19954;-88
2022/04/08 05:47:38;;;;;;;;;;;6.50;1.00;;;;;;6077918;22;3704316;-90
2022/04/08 05:50:11;;;;;;;;;;;6.80;99.90;;;;;;6246259;23;19986;-90
2022/04/08 05:52:45;;;;;;;;;;;6.60;1.00;;;;;;6249731;23;19971;-88
2022/04/08 05:55:12;;;;;;;;;;;6.40;1.00;;;;;;6246397;23;20001;-87
2022/04/08 05:57:44;;;;;;;;;;;6.20;1.00;;;;;;6244549;23;20055;-88
2022/04/08 06:00:13;;;;;;;;;;;6.10;1.00;;;;;;6247976;23;19982;-90
2022/04/08 06:02:43;;;;;;;;;;;6.10;1.00;;;;;;6247933;23;19969;-87
2022/04/08 06:05:15;;;;;;;;;;;6.00;1.00;;;;;;6240211;23;19967;-90
2022/04/08 06:07:46;;;;;;;;;;;6.00;1.00;;;;;;6248480;23;19931;-90
2022/04/08 06:10:18;;;;;;;;;;;6.00;1.00;;;;;;6245158;23;19971;-88
2022/04/08 06:12:49;;;;;;;;;;;6.10;3.10;;;;;;6247451;23;19965;-87
2022/04/08 06:15:17;;;;;;;;;;;6.10;85.70;;;;;;6247383;23;19978;-90
2022/04/08 06:17:47;;;;;;;;;;;6.10;99.90;;;;;;6247314;23;19964;-88
2022/04/08 06:20:17;;;;;;;;;;;6.20;99.90;;;;;;6247692;23;19975;-90
2022/04/08 06:22:47;;;;;;;;;;;6.30;99.90;;;;;;6246671;23;19947;-86
2022/04/08 06:25:15;;;;;;;;;;;6.30;99.90;;;;;;6244799;23;19995;-87
2022/04/08 06:27:47;;;;;;;;;;;6.40;44.60;;;;;;6245451;23;19988;-89
2022/04/08 06:30:27;;;;;;;;;;;6.40;1.00;;;;;;6241743;23;19971;-90
2022/04/08 06:32:58;;;;;;;;;;;6.50;1.00;;;;;;6246428;23;19971;-87
2022/04/08 06:35:32;;;;;;;;;;;6.50;1.00;;;;;;6246787;23;19964;-87
2022/04/08 06:38:05;;;;;;;;;;;6.50;1.00;;;;;;6247781;23;19988;-89
2022/04/08 06:40:42;;;;;;;;;;;6.40;1.00;;;;;;6247695;23;19975;-89
2022/04/08 06:43:10;;;;;;;;;;;6.50;1.00;;;;;;6244286;23;19946;-90
2022/04/08 06:45:47;;;;;;;;;;;6.50;1.00;;;;;;6247923;23;19977;-90
2022/04/08 06:48:15;;;;;;;;;;;6.50;1.00;;;;;;6241909;23;19987;-87
2022/04/08 06:50:50;;;;;;;;;;;6.50;1.00;;;;;;6240695;23;20457;-88
2022/04/08 06:53:21;;;;;;;;;;;6.50;1.00;;;;;;6239710;23;19960;-91
2022/04/08 06:55:58;;;;;;;;;;;6.50;1.00;;;;;;6240744;23;19986;-88
2022/04/08 06:58:39;;;;;;;;;;;6.50;1.00;;;;;;6236385;23;19960;-86
2022/04/08 07:01:15;;;;;;;;;;;6.50;1.00;;;;;;6239410;23;19972;-88
2022/04/08 07:03:43;;;;;;;;;;;6.50;99.90;;;;;;6239537;23;19966;-89
2022/04/08 07:06:16;;;;;;;;;;;6.60;99.90;;;;;;6241029;23;19971;-88
2022/04/08 07:12:14;;;;;;;;;;;6.70;1.00;;;;;;6235105;23;19952;-89
2022/04/08 07:14:41;;;;;;;;;;;6.80;99.90;;;;;;6165435;23;19942;-86
2022/04/08 07:17:08;;;;;;;;;;;6.80;99.90;;;;;;6228026;23;20330;-87
2022/04/08 07:19:54;;;;;;;;;;;6.80;99.90;;;;;;6237003;23;19919;-91
2022/04/08 07:22:27;;;;;;;;;;;6.80;99.90;;;;;;6238412;23;19927;-89
2022/04/08 07:24:57;;;;;;;;;;;6.80;99.90;;;;;;6240461;23;19904;-88
2022/04/08 07:27:30;;;;;;;;;;;6.80;99.90;;;;;;6239745;23;19920;-90
2022/04/08 07:30:01;;;;;;;;;;;6.80;99.90;;;;;;6239335;23;19940;-86
2022/04/08 07:32:37;;;;;;;;;;;6.90;99.90;;;;;;6240097;23;19927;-90
2022/04/08 07:35:19;;;;;;;;;;;7.00;99.90;;;;;;6240171;23;19943;-92
2022/04/08 07:37:58;;;;;;;;;;;7.20;1.00;;;;;;6219473;23;19935;-89
2022/04/08 07:43:19;;;;;;;;;;;7.30;1.00;;;;;;6235787;23;19926;-90
2022/04/08 07:45:53;;;;;;;;;;;7.30;1.00;;;;;;6236196;23;19943;-90
2022/04/08 07:48:48;;;;;;;;;;;7.20;1.00;;;;;;6236535;23;19943;-90
2022/04/08 07:54:16;;;;;;;;;;;7.10;99.90;;;;;;6226602;23;19908;-88
2022/04/08 07:56:45;;;;;;;;;;;7.10;99.90;;;;;;6238462;23;19966;-93
2022/04/08 07:59:28;;;;;;;;;;;7.10;99.90;;;;;;6237200;23;19920;-91
2022/04/08 08:02:13;;;;;;;;;;;7.00;99.90;;;;;;6238558;23;19923;-87
2022/04/08 08:04:56;;;;;;;;;;;7.10;99.90;;;;;;6237426;23;19926;-88
2022/04/08 08:07:29;;;;;;;;;;;7.10;99.90;;;;;;6240068;23;19934;-93
2022/04/08 08:12:51;;;;;;;;;;;7.20;99.90;;;;;;6235294;23;19987;-89
2022/04/08 08:15:32;;;;;;;;;;;7.10;99.90;;;;;;6238635;23;20338;-88
2022/04/08 08:18:13;;;;;;;6.20;2.50;;;7.20;99.90;;;;;;6237662;23;19983;-88
2022/04/08 08:21:01;;;;;;;;;;;7.20;99.90;;;;;;6239254;23;20155;-89
2022/04/08 08:23:31;;;;;;;;;;;7.20;99.90;;;;;;6240020;23;19963;-90
2022/04/08 08:28:56;;;;;;;6.40;2.93;;;8.40;1.00;;;;;;6221147;23;20180;-87
2022/04/08 08:31:36;;;;;;;5.40;1.57;;;9.10;1.00;;;;;;6238102;23;20171;-90
2022/04/08 08:34:13;;;;;;;3.17;1.17;;;9.90;1.00;;;;;;6239014;23;20158;-90
2022/04/08 08:36:59;;;;;;;3.13;1.23;;;10.70;99.90;;;;;;6236768;23;20190;-90
2022/04/08 08:39:55;;;;;;;4.30;1.60;;;11.20;99.90;;;;;;6240381;23;20169;-90
2022/04/08 08:42:50;;;;;;;;;;;;;;;;;;;;;
2022/04/08 08:45:28;;;;;;;3.93;2.30;;;11.20;1.00;;;;;;6238793;23;20190;-89
2022/04/08 08:48:11;;;;;;;5.13;1.67;;;11.00;1.00;;;;;;6208616;23;20160;-87
2022/04/08 08:50:50;;;;;;;3.70;1.90;;;11.30;1.00;;;;;;6208194;23;20216;-89
2022/04/08 08:56:20;;;;;;;3.17;1.60;;;11.00;1.00;;;;;;6207596;23;20190;-90
2022/04/08 08:59:13;;;;;;;5.77;1.77;;;11.50;1.00;;;;;;6207302;23;20210;-88
2022/04/08 09:02:05;;;;;;;5.30;1.70;;;12.40;1.00;;;;;;6206821;23;20491;-87
2022/04/08 09:05:13;;;;;;;6.53;2.10;;;13.50;1.00;;;;;;6206628;23;20153;-89
2022/04/08 09:07:40;;;;;;;3.05;1.35;;;14.20;1.00;;;;;;6204921;23;20192;-86
2022/04/08 09:10:29;;;;;;;5.20;2.05;;;14.80;1.00;;;;;;6207320;23;20193;-90
2022/04/08 09:13:04;;;;;;;;;;;15.40;1.00;;;;;;6205854;23;20072;-89
2022/04/08 09:15:37;;;;;;;7.93;2.80;;;15.90;1.00;;;;;;6199711;23;20246;-88
2022/04/08 09:18:20;;;;;;;55.78;18.70;;;16.30;1.00;;;;;;6204960;23;20209;-92
2022/04/08 09:21:00;;;;;;;53.08;20.25;;;16.70;1.00;;;;;;6204014;23;20189;-87
2022/04/08 09:23:46;;;;;;;55.13;23.80;;;16.90;1.00;;;;;;6204976;23;20172;-92
2022/04/08 09:26:14;;;;;;;36.60;14.25;;;16.60;1.00;;;;;;6205970;23;20173;-90
2022/04/08 09:31:59;;;;;;;24.85;9.48;;;16.40;1.00;;;;;;6198992;23;20051;-90
2022/04/08 09:34:29;;;;;;;22.42;9.82;;;15.30;1.00;;;;;;6194605;23;20201;-86
2022/04/08 09:36:58;;;;;;;15.20;5.55;;;15.10;1.00;;;;;;6204628;23;20185;-88
2022/04/08 09:39:36;;;;;;;61.97;27.38;;;15.30;1.00;;;;;;6207938;23;20168;-88
2022/04/08 09:42:19;;;;;;;27.63;12.75;;;15.60;1.00;;;;;;6206713;23;20144;-90
2022/04/08 09:45:06;;;;;;;20.90;8.03;;;15.80;1.00;;;;;;6206124;23;20155;-89
2022/04/08 09:47:57;;;;;;;19.90;8.10;;;15.50;1.00;;;;;;6230785;23;20184;-90
2022/04/08 09:50:25;;;;;;;8.63;2.63;;;15.00;1.00;;;;;;6229123;23;20172;-89
2022/04/08 09:52:52;;;;;;;30.00;13.10;;;14.90;1.00;;;;;;6221100;23;20176;-86
2022/04/08 09:55:21;;;;;;;45.93;21.40;;;14.70;1.00;;;;;;6228239;23;20174;-86
2022/04/08 09:57:53;;;;;;;36.00;17.33;;;14.10;1.00;;;;;;6228649;23;20170;-87
2022/04/08 10:00:23;;;;;;;29.53;13.83;;;13.80;1.00;;;;;;6230914;23;20182;-90
2022/04/08 10:02:54;;;;;;;36.77;17.50;;;13.70;1.00;;;;;;6230863;23;20165;-87
2022/04/08 10:05:23;;;;;;;30.20;16.17;;;13.40;1.00;;;;;;6230733;23;20150;-86
2022/04/08 10:07:57;;;;;;;29.53;16.47;;;13.00;1.00;;;;;;6231045;23;20195;-87
2022/04/08 10:10:32;;;;;;;34.60;16.60;;;12.90;1.00;;;;;;6226253;23;20148;-90
2022/04/08 10:13:46;;;;;;;30.63;13.10;;;13.00;1.00;;;;;;6225961;23;20181;-86
2022/04/08 10:16:18;;;;;;;10.63;3.97;;;13.00;1.00;;;;;;6219541;23;20216;-87
2022/04/08 10:18:47;;;;;;;12.83;4.97;;;12.90;1.00;;;;;;6214370;23;20672;-86
2022/04/08 10:21:24;;;;;;;14.07;6.17;;;12.80;1.00;;;;;;6219390;23;20688;-86
2022/04/08 10:23:53;;;;;;;33.30;14.20;;;13.00;1.00;;;;;;6221197;23;20163;-87
2022/04/08 10:26:22;;;;;;;21.37;9.90;;;13.00;1.00;;;;;;6216467;23;20246;-86
2022/04/08 10:28:54;;;;;;;24.10;10.20;;;12.90;1.00;;;;;;6218312;23;20172;-87
2022/04/08 10:31:23;;;;;;;31.40;13.70;;;12.90;1.00;;;;;;6220885;23;20243;-86
2022/04/08 10:33:57;;;;;;;24.63;9.67;;;12.90;1.00;;;;;;6221335;23;20534;-86
2022/04/08 10:36:35;;;;;;;14.60;6.23;;;12.90;1.00;;;;;;6224153;23;20148;-90
2022/04/08 10:39:18;;;;;;;20.80;10.00;;;12.90;1.00;;;;;;6225233;23;20140;-85
2022/04/08 10:41:49;;;;;;;40.30;10.67;;;12.70;1.00;;;;;;6218792;23;20171;-85
2022/04/08 10:44:19;;;;;;;28.17;12.10;;;12.50;1.00;;;;;;6217879;23;20162;-87
2022/04/08 10:46:50;;;;;;;18.63;6.23;;;12.30;1.00;;;;;;6219315;23;20277;-86
2022/04/08 10:49:23;;;;;;;18.77;7.90;;;12.20;1.00;;;;;;6221649;23;20171;-86
2022/04/08 10:51:58;;;;;;;20.00;7.37;;;12.10;1.00;;;;;;6237532;23;20158;-90
2022/04/08 10:54:35;;;;;;;15.30;5.70;;;12.20;1.00;;;;;;6217814;23;20159;-88
2022/04/08 10:57:02;;;;;;;15.37;8.50;;;12.50;1.00;;;;;;6215203;23;20162;-87
2022/04/08 10:59:30;;;;;;;12.27;8.00;;;12.60;1.00;;;;;;6217528;23;20227;-87
2022/04/08 11:02:12;;;;;;;13.60;7.90;;;12.60;1.00;;;;;;6229952;23;20194;-92
2022/04/08 11:04:48;;;;;;;11.23;5.90;;;12.60;1.00;;;;;;6227247;23;20166;-90
2022/04/08 11:07:20;;;;;;;14.93;9.50;;;12.50;1.00;;;;;;6225433;23;20167;-90
2022/04/08 11:09:54;;;;;;;11.57;6.00;;;12.60;1.00;;;;;;6227292;23;20162;-86
2022/04/08 11:12:21;;;;;;;7.97;4.17;;;12.70;1.00;;;;;;6230421;23;20216;-86
2022/04/08 11:14:54;;;;;;;6.47;1.80;;;13.00;1.00;;;;;;6226419;23;20167;-88
2022/04/08 11:17:37;;;;;;;6.97;4.63;;;13.00;1.00;;;;;;6227728;23;20143;-87
2022/04/08 11:20:09;;;;;;;8.47;3.77;;;12.90;1.00;;;;;;6218051;23;20171;-86
2022/04/08 11:22:40;;;;;;;7.23;2.07;;;12.80;1.00;;;;;;6229005;23;20180;-87
2022/04/08 11:25:10;;;;;;;8.80;2.90;;;12.90;1.00;;;;;;6217332;23;20171;-91
2022/04/08 11:27:37;;;;;;;9.07;3.87;;;13.10;1.00;;;;;;6223829;23;20200;-88
2022/04/08 11:30:18;;;;;;;7.40;2.10;;;13.20;1.00;;;;;;6237274;23;20172;-86
2022/04/08 11:32:45;;;;;;;9.87;3.63;;;13.30;1.00;;;;;;6226385;23;20165;-84
2022/04/08 11:35:21;;;;;;;12.40;4.13;;;13.40;1.00;;;;;;6225539;23;20171;-87
2022/04/08 11:38:12;;;;;;;9.17;5.70;;;13.30;1.00;;;;;;6235262;23;20139;-89
2022/04/08 11:40:39;;;;;;;20.03;8.83;;;13.00;1.00;;;;;;6223830;23;20165;-84
2022/04/08 11:43:06;;;;;;;16.10;6.97;;;12.70;1.00;;;;;;6215436;23;20679;-85
2022/04/08 11:45:33;;;;;;;12.97;8.13;;;12.50;1.00;;;;;;6224243;23;20172;-87
2022/04/08 11:48:15;;;;;;;4.73;2.60;;;12.30;1.00;;;;;;6229322;23;20191;-87
2022/04/08 11:50:44;;;;;;;10.60;4.47;;;12.10;1.00;;;;;;6227753;23;20110;-87
2022/04/08 11:53:20;;;;;;;7.70;2.80;;;12.00;1.00;;;;;;6225755;23;20157;-86
2022/04/08 11:55:54;;;;;;;11.83;2.80;;;11.90;1.00;;;;;;6220094;23;20158;-85
2022/04/08 11:58:22;;;;;;;18.60;6.67;;;11.80;1.00;;;;;;6223855;23;20158;-87
2022/04/08 12:01:05;;;;;;;14.50;6.30;;;11.70;1.00;;;;;;6224913;23;20203;-89
2022/04/08 12:03:36;;;;;;;8.03;2.93;;;11.60;1.00;;;;;;6223519;23;20157;-86
2022/04/08 12:06:05;;;;;;;9.67;5.83;;;11.70;1.00;;;;;;6225031;23;20615;-87
2022/04/08 12:08:32;;;;;;;8.23;3.80;;;11.90;1.00;;;;;;6215157;23;20190;-86
2022/04/08 12:11:00;;;;;;;9.33;3.97;;;12.00;1.00;;;;;;6215809;23;20260;-89
2022/04/08 12:13:29;;;;;;;7.80;3.60;;;12.00;1.00;;;;;;6219704;23;20173;-87
2022/04/08 12:15:57;;;;;;;9.13;4.80;;;11.90;1.00;;;;;;6220943;23;20213;-83
2022/04/08 12:18:26;;;;;;;5.97;2.30;;;11.80;1.00;;;;;;6221821;23;20193;-84
2022/04/08 12:20:55;;;;;;;10.63;4.47;;;11.80;1.00;;;;;;6215474;23;20241;-85
2022/04/08 12:23:29;;;;;;;3.53;1.40;;;11.90;1.00;;;;;;6220751;23;20171;-89
2022/04/08 12:26:08;;;;;;;4.23;1.40;;;12.00;1.00;;;;;;6220152;23;20158;-83
2022/04/08 12:28:35;;;;;;;8.30;2.13;;;12.00;1.00;;;;;;6218229;23;20175;-84
2022/04/08 12:31:11;;;;;;;6.30;1.97;;;12.00;1.00;;;;;;6218183;23;20252;-86
2022/04/08 12:33:38;;;;;;;4.47;1.90;;;11.70;1.00;;;;;;6217965;23;20162;-85
2022/04/08 12:36:09;;;;;;;2.90;1.60;;;11.50;1.00;;;;;;6215021;23;20489;-86
2022/04/08 12:38:38;;;;;;;5.83;1.63;;;11.30;1.00;;;;;;6217868;23;20156;-86
2022/04/08 12:41:10;;;;;;;5.73;1.77;;;11.30;1.00;;;;;;6217091;23;20251;-84
2022/04/08 12:43:37;;;;;;;4.80;1.23;;;11.20;1.00;;;;;;6217260;23;20184;-85
2022/04/08 12:46:04;;;;;;;5.20;1.30;;;11.20;1.00;;;;;;6218777;23;20185;-85
2022/04/08 12:48:37;;;;;;;6.47;2.80;;;11.30;1.00;;;;;;6218552;23;20193;-87
2022/04/08 12:51:07;;;;;;;10.47;5.10;;;11.40;1.00;;;;;;6190730;23;20224;-85
2022/04/08 12:53:34;;;;;;;4.43;1.70;;;11.60;1.00;;;;;;6221050;23;20182;-85
2022/04/08 12:56:02;;;;;;;4.67;2.07;;;11.70;1.00;;;;;;6218011;23;20170;-86
2022/04/08 12:58:29;;;;;;;6.97;3.03;;;11.60;1.00;;;;;;6214584;23;20172;-86
2022/04/08 13:01:02;;;;;;;3.53;1.80;;;11.50;1.00;;;;;;6223250;23;20180;-90
2022/04/08 13:03:33;;;;;;;5.57;2.80;;;11.40;1.00;;;;;;6222364;23;20150;-90
2022/04/08 13:06:55;;;;;;;;;;;;;;;;;;;;;
2022/04/08 13:09:47;;;;;;;5.47;1.93;;;11.30;1.00;;;;;;6148529;23;20167;-91
2022/04/08 13:12:17;;;;;;;4.13;1.60;;;11.50;1.00;;;;;;6142554;23;20171;-90
2022/04/08 13:14:44;;;;;;;6.17;2.57;;;11.50;1.00;;;;;;6136265;23;20325;-85
2022/04/08 13:17:11;;;;;;;4.27;1.20;;;11.50;1.00;;;;;;6132319;23;20162;-86
2022/04/08 13:19:38;;;;;;;3.20;1.47;;;11.40;1.00;;;;;;6131845;23;20172;-88
2022/04/08 13:22:05;;;;;;;4.33;1.63;;;11.40;1.00;;;;;;6123129;23;20694;-86
2022/04/08 13:24:32;;;;;;;5.83;2.30;;;11.30;1.00;;;;;;6125953;23;20647;-87
2022/04/08 13:26:59;;;;;;;3.83;1.97;;;11.40;1.00;;;;;;6167651;23;20169;-85
2022/04/08 13:29:28;;;;;;;3.47;1.47;;;11.40;1.00;;;;;;6220844;23;20195;-85
2022/04/08 13:31:55;;;;;;;1.90;1.20;;;11.70;1.00;;;;;;6215893;23;20173;-86
2022/04/08 13:34:22;;;;;;;2.10;1.20;;;11.70;1.00;;;;;;6217294;23;20216;-88
2022/04/08 13:36:53;;;;;;;2.33;1.60;;;11.60;1.00;;;;;;6218805;23;20178;-89
2022/04/08 13:39:20;;;;;;;2.73;1.00;;;11.40;1.00;;;;;;6219378;23;20161;-85
2022/04/08 13:41:50;;;;;;;2.80;1.27;;;11.40;1.00;;;;;;6221110;23;20184;-87
2022/04/08 13:44:18;;;;;;;2.40;1.20;;;11.30;1.00;;;;;;6218601;23;20228;-88
2022/04/08 13:47:09;;;;;;;2.67;1.40;;;11.30;1.00;;;;;;6227750;23;20193;-89
2022/04/08 13:49:57;;;;;;;3.73;1.40;;;11.30;1.00;;;;;;6235700;23;20174;-88
2022/04/08 13:52:33;;;;;;;3.63;1.63;;;11.40;1.00;;;;;;6178941;23;20196;-87
2022/04/08 13:57:57;;;;;;;4.73;1.50;;;11.30;1.00;;;;;;6233956;23;20162;-87
2022/04/08 14:00:35;;;;;;;5.93;1.27;;;11.20;1.00;;;;;;6238405;23;20157;-91
2022/04/08 14:03:38;;;;;;;2.60;1.60;;;11.10;1.00;;;;;;6239459;23;20203;-88
2022/04/08 14:06:25;;;;;;;3.57;1.57;;;10.90;1.00;;;;;;6238453;23;20169;-88
2022/04/08 14:08:57;;;;;;;3.40;1.77;;;10.60;1.00;;;;;;6213748;23;20166;-88
2022/04/08 14:14:24;;;;;;;6.10;1.83;;;10.10;1.00;;;;;;6231974;23;20192;-87
2022/04/08 14:17:42;;;;;;;8.37;4.00;;;10.10;1.00;;;;;;6241080;23;20210;-90
2022/04/08 14:20:22;;;;;;;5.23;3.10;;;10.10;1.00;;;;;;6147700;23;20154;-89
2022/04/08 14:23:14;;;;;;;9.13;3.40;;;10.30;1.00;;;;;;6149494;23;20177;-90
2022/04/08 14:25:45;;;;;;;11.47;5.77;;;10.50;1.00;;;;;;6127306;23;20174;-92
2022/04/08 14:28:18;;;;;;;9.43;4.20;;;10.70;1.00;;;;;;6141477;23;20204;-84
2022/04/08 14:30:55;;;;;;;7.17;2.20;;;10.80;1.00;;;;;;6149942;23;20181;-89
2022/04/08 14:33:45;;;;;;;10.53;4.20;;;10.90;1.00;;;;;;6146754;23;20170;-88
2022/04/08 14:36:37;;;;;;;19.23;6.27;;;11.00;1.00;;;;;;6148109;23;20223;-93
2022/04/08 14:39:09;;;;;;;5.90;2.60;;;11.00;1.00;;;;;;6235018;23;20248;-90
2022/04/08 14:41:52;;;;;;;13.73;5.20;;;11.10;1.00;;;;;;6237194;23;20218;-88
2022/04/08 14:44:25;;;;;;;5.33;2.13;;;11.10;1.00;;;;;;6240986;23;20177;-89
2022/04/08 14:46:58;;;;;;;4.87;1.63;;;11.20;1.00;;;;;;6239508;23;20200;-89
2022/04/08 14:49:25;;;;;;;24.33;8.57;;;11.30;1.00;;;;;;6238656;23;20169;-83
2022/04/08 14:51:52;;;;;;;7.63;3.70;;;11.20;1.00;;;;;;6220230;23;20176;-86
2022/04/08 14:54:22;;;;;;;31.60;14.73;;;11.20;1.00;;;;;;6223302;23;20172;-83
2022/04/08 14:56:52;;;;;;;17.43;6.20;;;11.20;1.00;;;;;;6226089;23;20168;-86
2022/04/08 15:05:13;;;;;;;53.00;16.57;;;11.20;1.00;;;;;;6236994;23;20156;-85
2022/04/08 15:08:11;;;;;;;13.63;5.10;;;11.20;1.00;;;;;;6238623;23;20161;-87
2022/04/08 15:14:04;;;;;;;11.03;3.87;;;10.90;1.00;;;;;;6213575;23;20179;-86
2022/04/08 15:16:39;;;;;;;14.63;5.73;;;10.80;1.00;;;;;;6238050;23;20218;-88
2022/04/08 15:19:31;;;;;;;10.77;5.00;;;10.70;1.00;;;;;;6238820;23;20159;-87
2022/04/08 15:22:01;;;;;;;18.70;9.43;;;10.60;1.00;;;;;;6147800;23;20169;-84
2022/04/08 15:24:37;;;;;;;5.43;2.80;;;10.60;1.00;;;;;;6233180;23;20155;-88
2022/04/08 15:27:49;;;;;;;7.27;3.30;;;10.60;1.00;;;;;;6238891;23;20176;-87
2022/04/08 15:30:22;;;;;;;6.90;2.50;;;10.60;1.00;;;;;;6240239;23;20172;-89
2022/04/08 15:33:00;;;;;;;7.27;4.17;;;10.70;1.00;;;;;;6239167;23;20156;-84
2022/04/08 15:35:54;;;;;;;2.87;1.50;;;10.70;1.00;;;;;;6240143;23;20226;-86
2022/04/08 15:38:34;;;;;;;4.63;1.80;;;10.70;1.00;;;;;;6240452;23;20176;-86
2022/04/08 15:41:16;;;;;;;6.33;2.07;;;10.70;1.00;;;;;;6236573;23;20219;-88
2022/04/08 15:44:08;;;;;;;4.27;2.10;;;10.60;1.00;;;;;;6240673;23;20187;-88
2022/04/08 15:46:57;;;;;;;8.03;2.20;;;10.70;1.00;;;;;;6238014;23;20255;-89
2022/04/08 15:49:50;;;;;;;3.47;2.83;;;10.60;1.00;;;;;;6239050;23;20191;-88
2022/04/08 15:52:36;;;;;;;5.60;2.50;;;10.60;1.00;;;;;;6237568;23;20185;-88
2022/04/08 15:55:13;;;;;;;10.50;3.10;;;10.50;1.00;;;;;;6239310;23;20155;-86
2022/04/08 15:57:46;;;;;;;4.40;2.40;;;10.30;1.00;;;;;;6236842;23;20152;-90
2022/04/08 16:00:35;;;;;;;5.80;2.60;;;10.20;1.00;;;;;;6238873;23;20190;-89
2022/04/08 16:03:10;;;;;;;5.90;2.30;;;10.10;1.00;;;;;;6217557;23;20202;-84
2022/04/08 16:05:53;;;;;;;7.60;3.90;;;9.90;1.00;;;;;;6235912;23;20149;-85
2022/04/08 16:08:27;;;;;;;7.37;4.30;;;9.80;1.00;;;;;;6239750;23;20178;-89
2022/04/08 16:11:42;;;;;;;5.57;2.90;;;9.70;1.00;;;;;;6239176;23;20165;-88
2022/04/08 16:14:24;;;;;;;4.80;2.57;;;9.60;1.00;;;;;;6238994;23;20160;-89
2022/04/08 16:17:11;;;;;;;6.90;2.80;;;9.50;1.00;;;;;;6237684;23;20239;-89
2022/04/08 16:19:42;;;;;;;6.53;2.70;;;9.50;1.00;;;;;;6238451;23;20193;-89
2022/04/08 16:22:22;;;;;;;8.30;2.67;;;9.40;1.00;;;;;;6240477;23;20197;-86
2022/04/08 16:25:01;;;;;;;7.50;2.70;;;9.30;1.00;;;;;;6236825;23;20172;-90
2022/04/08 16:27:42;;;;;;;4.80;2.90;;;9.30;1.00;;;;;;6238438;23;20143;-89
2022/04/08 16:33:25;;;;;;;4.97;2.47;;;9.20;1.00;;;;;;6231077;23;20469;-89
2022/04/08 16:36:16;;;;;;;5.03;2.50;;;9.20;1.00;;;;;;6213018;23;20176;-87
2022/04/08 16:38:43;;;;;;;5.57;2.03;;;9.10;1.00;;;;;;6232564;23;20171;-83
2022/04/08 16:41:19;;;;;;;7.50;2.57;;;9.00;1.00;;;;;;6238224;23;20153;-88
2022/04/08 16:43:53;;;;;;;4.73;2.87;;;8.90;1.00;;;;;;6235253;23;20165;-86
2022/04/08 16:46:39;;;;;;;5.53;2.80;;;8.90;1.00;;;;;;6238981;23;20219;-87
2022/04/08 16:49:12;;;;;;;6.20;3.73;;;8.80;1.00;;;;;;6240057;23;20236;-85
2022/04/08 16:51:54;;;;;;;8.17;3.97;;;8.70;1.00;;;;;;6239006;23;20152;-88
2022/04/08 16:54:53;;;;;;;6.60;3.40;;;8.60;1.00;;;;;;6239334;23;20200;-87
2022/04/08 16:57:43;;;;;;;8.07;3.67;;;8.60;1.00;;;;;;6237490;23;20164;-89
2022/04/08 17:00:19;;;;;;;8.90;4.43;;;8.50;1.00;;;;;;6237451;23;20161;-89
2022/04/08 17:02:46;;;;;;;8.07;3.90;;;8.40;1.00;;;;;;6235473;23;20143;-85
2022/04/08 17:08:05;;;;;;;7.10;3.73;;;8.30;1.00;;;;;;6231787;23;20188;-84
2022/04/08 17:10:47;;;;;;;8.73;5.03;;;8.30;1.00;;;;;;6236068;23;20202;-89
2022/04/08 17:13:20;;;;;;;7.07;3.30;;;8.20;1.00;;;;;;6237155;23;20192;-87